sensor_id;sensor_type;location;lat;lon;timestamp;pressure;altitude;pressure_sealevel;temperature;humidity
18275;BME280;19470;49.322;7.218;2022-10-17T00:00:00;99109.41;;;17.80;100.00
18275;BME280;19470;49.322;7.218;2022-10-17T00:02:26;99102.22;;;18.10;100.00
18275;BME280;19470;49.322;7.218;2022-10-17T00:04:52;99106.78;;;17.70;100.00
18275;BME280;19470;49.322;7.218;2022-10-17T00:07:19;99112.31;;;17.89;100.00
18275;BME280;19470;49.322;7.218;2022-10-17T00:09:45;99114.22;;;17.83;100.00
18275;BME280;19470;49.322;7.218;2022-10-17T00:12:13;99115.34;;;17.67;100.00
18275;BME280;19470;49.322;7.218;2022-10-17T00:14:40;99126.13;;;17.57;100.00
18275;BME280;19470;49.322;7.218;2022-10-17T00:17:06;99123.34;;;17.28;100.00
18275;BME280;19470;49.322;7.218;2022-10-17T00:19:33;99125.84;;;16.89;100.00
18275;BME280;19470;49.322;7.218;2022-10-17T00:21:59;99118.81;;;17.23;100.00
18275;BME280;19470;49.322;7.218;2022-10-17T00:24:26;99121.84;;;17.61;100.00
18275;BME280;19470;49.322;7.218;2022-10-17T00:26:52;99122.16;;;17.44;100.00
18275;BME280;19470;49.322;7.218;2022-10-17T00:29:20;99119.66;;;17.63;100.00
18275;BME280;19470;49.322;7.218;2022-10-17T00:31:47;99114.63;;;17.56;100.00
18275;BME280;19470;49.322;7.218;2022-10-17T00:34:13;99118.28;;;17.76;100.00
18275;BME280;19470;49.322;7.218;2022-10-17T00:36:49;99118.97;;;17.42;100.00
18275;BME280;19470;49.322;7.218;2022-10-17T00:39:16;99116.53;;;17.51;100.00
18275;BME280;19470;49.322;7.218;2022-10-17T00:41:42;99123.28;;;17.87;100.00
18275;BME280;19470;49.322;7.218;2022-10-17T00:47:14;99118.31;;;17.66;100.00
18275;BME280;19470;49.322;7.218;2022-10-17T00:49:42;99111.13;;;17.61;100.00
18275;BME280;19470;49.322;7.218;2022-10-17T00:52:12;99119.38;;;17.75;100.00
18275;BME280;19470;49.322;7.218;2022-10-17T00:54:43;99113.34;;;17.44;100.00
18275;BME280;19470;49.322;7.218;2022-10-17T00:57:11;99123.16;;;17.04;100.00
18275;BME280;19470;49.322;7.218;2022-10-17T00:59:39;99121.41;;;17.38;100.00
18275;BME280;19470;49.322;7.218;2022-10-17T01:02:09;99117.25;;;17.67;100.00
18275;BME280;19470;49.322;7.218;2022-10-17T01:04:40;99109.75;;;18.08;100.00
18275;BME280;19470;49.322;7.218;2022-10-17T01:07:08;99112.97;;;17.66;100.00
18275;BME280;19470;49.322;7.218;2022-10-17T01:09:35;99127.28;;;17.41;100.00
18275;BME280;19470;49.322;7.218;2022-10-17T01:12:09;99118.63;;;17.54;100.00
18275;BME280;19470;49.322;7.218;2022-10-17T01:14:45;99116.41;;;17.71;100.00
18275;BME280;19470;49.322;7.218;2022-10-17T01:17:51;99111.28;;;17.80;100.00
18275;BME280;19470;49.322;7.218;2022-10-17T01:20:45;99113.38;;;17.38;100.00
18275;BME280;19470;49.322;7.218;2022-10-17T01:23:49;99123.44;;;16.97;100.00
18275;BME280;19470;49.322;7.218;2022-10-17T01:26:24;99121.09;;;17.45;100.00
18275;BME280;19470;49.322;7.218;2022-10-17T01:29:17;99131.38;;;17.23;100.00
18275;BME280;19470;49.322;7.218;2022-10-17T01:31:53;99132.63;;;17.46;100.00
18275;BME280;19470;49.322;7.218;2022-10-17T01:34:27;99120.25;;;17.50;100.00
18275;BME280;19470;49.322;7.218;2022-10-17T01:37:01;99119.22;;;17.51;100.00
18275;BME280;19470;49.322;7.218;2022-10-17T01:39:40;99123.00;;;17.40;100.00
18275;BME280;19470;49.322;7.218;2022-10-17T01:42:14;99111.22;;;17.46;100.00
18275;BME280;19470;49.322;7.218;2022-10-17T01:44:47;99106.88;;;17.50;100.00
18275;BME280;19470;49.322;7.218;2022-10-17T01:47:18;99112.13;;;17.75;100.00
18275;BME280;19470;49.322;7.218;2022-10-17T01:49:48;99107.34;;;17.13;100.00
18275;BME280;19470;49.322;7.218;2022-10-17T01:52:18;99105.97;;;17.15;100.00
18275;BME280;19470;49.322;7.218;2022-10-17T01:54:47;99109.03;;;17.48;100.00
18275;BME280;19470;49.322;7.218;2022-10-17T01:57:21;99103.94;;;17.96;100.00
18275;BME280;19470;49.322;7.218;2022-10-17T01:59:51;99106.31;;;17.58;100.00
18275;BME280;19470;49.322;7.218;2022-10-17T02:02:20;99105.41;;;17.28;100.00
18275;BME280;19470;49.322;7.218;2022-10-17T02:04:49;99097.84;;;17.35;100.00
18275;BME280;19470;49.322;7.218;2022-10-17T02:07:17;99099.97;;;17.38;100.00
18275;BME280;19470;49.322;7.218;2022-10-17T02:09:44;99101.00;;;17.48;100.00
18275;BME280;19470;49.322;7.218;2022-10-17T02:12:24;99097.81;;;17.46;100.00
18275;BME280;19470;49.322;7.218;2022-10-17T02:15:07;99107.31;;;17.67;100.00
18275;BME280;19470;49.322;7.218;2022-10-17T02:17:43;99103.66;;;17.97;100.00
18275;BME280;19470;49.322;7.218;2022-10-17T02:20:17;99091.91;;;18.27;100.00
18275;BME280;19470;49.322;7.218;2022-10-17T02:22:48;99102.22;;;17.16;100.00
18275;BME280;19470;49.322;7.218;2022-10-17T02:25:24;99093.16;;;18.64;100.00
18275;BME280;19470;49.322;7.218;2022-10-17T02:27:57;99101.81;;;18.85;100.00
18275;BME280;19470;49.322;7.218;2022-10-17T02:30:35;99103.88;;;18.69;100.00
18275;BME280;19470;49.322;7.218;2022-10-17T02:33:08;99096.78;;;18.20;100.00
18275;BME280;19470;49.322;7.218;2022-10-17T02:35:40;99103.91;;;18.01;100.00
18275;BME280;19470;49.322;7.218;2022-10-17T02:38:08;99102.00;;;17.62;100.00
18275;BME280;19470;49.322;7.218;2022-10-17T02:43:57;99092.13;;;17.57;100.00
18275;BME280;19470;49.322;7.218;2022-10-17T02:46:26;99098.63;;;17.46;100.00
18275;BME280;19470;49.322;7.218;2022-10-17T02:48:58;99104.84;;;17.81;100.00
18275;BME280;19470;49.322;7.218;2022-10-17T02:51:28;99108.41;;;17.66;100.00
18275;BME280;19470;49.322;7.218;2022-10-17T02:54:02;99107.25;;;17.82;100.00
18275;BME280;19470;49.322;7.218;2022-10-17T02:56:35;99116.94;;;17.19;100.00
18275;BME280;19470;49.322;7.218;2022-10-17T02:59:05;99113.75;;;17.66;100.00
18275;BME280;19470;49.322;7.218;2022-10-17T03:01:34;99120.16;;;17.75;100.00
18275;BME280;19470;49.322;7.218;2022-10-17T03:04:07;99121.88;;;17.51;100.00
18275;BME280;19470;49.322;7.218;2022-10-17T03:06:34;99121.72;;;17.81;99.33
18275;BME280;19470;49.322;7.218;2022-10-17T03:09:00;99118.47;;;17.90;98.99
18275;BME280;19470;49.322;7.218;2022-10-17T03:11:27;99120.63;;;17.82;98.48
18275;BME280;19470;49.322;7.218;2022-10-17T03:13:53;99121.31;;;17.54;100.00
18275;BME280;19470;49.322;7.218;2022-10-17T03:16:20;99115.53;;;17.36;100.00
18275;BME280;19470;49.322;7.218;2022-10-17T03:18:46;99113.75;;;17.11;100.00
18275;BME280;19470;49.322;7.218;2022-10-17T03:21:14;99118.19;;;17.42;100.00
18275;BME280;19470;49.322;7.218;2022-10-17T03:23:41;99122.84;;;17.75;100.00
18275;BME280;19470;49.322;7.218;2022-10-17T03:26:08;99118.44;;;17.40;100.00
18275;BME280;19470;49.322;7.218;2022-10-17T03:28:35;99126.66;;;17.54;100.00
18275;BME280;19470;49.322;7.218;2022-10-17T03:31:05;99126.28;;;17.81;100.00
18275;BME280;19470;49.322;7.218;2022-10-17T03:33:32;99116.69;;;17.70;100.00
18275;BME280;19470;49.322;7.218;2022-10-17T03:35:58;99128.06;;;17.96;100.00
18275;BME280;19470;49.322;7.218;2022-10-17T03:38:26;99133.16;;;17.43;100.00
18275;BME280;19470;49.322;7.218;2022-10-17T03:40:56;99134.75;;;17.98;100.00
18275;BME280;19470;49.322;7.218;2022-10-17T03:43:22;99136.94;;;18.25;100.00
18275;BME280;19470;49.322;7.218;2022-10-17T03:45:49;99140.66;;;18.29;100.00
18275;BME280;19470;49.322;7.218;2022-10-17T03:48:15;99132.50;;;18.10;100.00
18275;BME280;19470;49.322;7.218;2022-10-17T03:50:42;99141.03;;;17.83;100.00
18275;BME280;19470;49.322;7.218;2022-10-17T03:53:08;99132.59;;;18.00;100.00
18275;BME280;19470;49.322;7.218;2022-10-17T03:55:36;99134.53;;;17.90;100.00
18275;BME280;19470;49.322;7.218;2022-10-17T03:58:03;99138.91;;;17.75;100.00
18275;BME280;19470;49.322;7.218;2022-10-17T04:00:29;99148.44;;;17.92;100.00
18275;BME280;19470;49.322;7.218;2022-10-17T04:02:56;99150.34;;;17.36;100.00
18275;BME280;19470;49.322;7.218;2022-10-17T04:05:23;99161.41;;;17.04;100.00
18275;BME280;19470;49.322;7.218;2022-10-17T04:07:49;99164.78;;;17.95;100.00
18275;BME280;19470;49.322;7.218;2022-10-17T04:10:16;99168.88;;;17.82;100.00
18275;BME280;19470;49.322;7.218;2022-10-17T04:12:44;99166.09;;;18.03;100.00
18275;BME280;19470;49.322;7.218;2022-10-17T04:15:11;99166.75;;;18.19;100.00
18275;BME280;19470;49.322;7.218;2022-10-17T04:17:37;99170.63;;;18.42;100.00
18275;BME280;19470;49.322;7.218;2022-10-17T04:20:04;99166.78;;;18.48;100.00
18275;BME280;19470;49.322;7.218;2022-10-17T04:22:31;99164.41;;;18.12;100.00
18275;BME280;19470;49.322;7.218;2022-10-17T04:24:58;99160.81;;;17.82;100.00
18275;BME280;19470;49.322;7.218;2022-10-17T04:27:24;99158.44;;;17.81;100.00
18275;BME280;19470;49.322;7.218;2022-10-17T04:29:52;99156.69;;;17.56;100.00
18275;BME280;19470;49.322;7.218;2022-10-17T04:32:18;99155.75;;;17.16;100.00
18275;BME280;19470;49.322;7.218;2022-10-17T04:34:47;99164.25;;;17.33;100.00
18275;BME280;19470;49.322;7.218;2022-10-17T04:37:14;99163.81;;;17.06;100.00
18275;BME280;19470;49.322;7.218;2022-10-17T04:39:40;99166.63;;;18.00;100.00
18275;BME280;19470;49.322;7.218;2022-10-17T04:42:07;99178.56;;;16.17;100.00
18275;BME280;19470;49.322;7.218;2022-10-17T04:54:39;99181.38;;;17.37;100.00
18275;BME280;19470;49.322;7.218;2022-10-17T04:57:06;99172.16;;;18.13;100.00
18275;BME280;19470;49.322;7.218;2022-10-17T04:59:32;99175.78;;;17.94;100.00
18275;BME280;19470;49.322;7.218;2022-10-17T05:01:59;99178.41;;;18.04;100.00
18275;BME280;19470;49.322;7.218;2022-10-17T05:04:25;99173.78;;;17.65;100.00
18275;BME280;19470;49.322;7.218;2022-10-17T05:06:52;99179.47;;;17.43;100.00
18275;BME280;19470;49.322;7.218;2022-10-17T05:09:18;99180.41;;;17.78;100.00
18275;BME280;19470;49.322;7.218;2022-10-17T05:11:46;99180.03;;;17.40;100.00
18275;BME280;19470;49.322;7.218;2022-10-17T05:14:14;99177.19;;;17.11;100.00
18275;BME280;19470;49.322;7.218;2022-10-17T05:16:41;99181.00;;;17.65;100.00
18275;BME280;19470;49.322;7.218;2022-10-17T05:19:07;99185.56;;;17.59;100.00
18275;BME280;19470;49.322;7.218;2022-10-17T05:21:34;99187.38;;;17.69;100.00
18275;BME280;19470;49.322;7.218;2022-10-17T05:24:04;99194.66;;;17.63;100.00
18275;BME280;19470;49.322;7.218;2022-10-17T05:26:31;99187.41;;;17.63;100.00
18275;BME280;19470;49.322;7.218;2022-10-17T05:28:59;99196.78;;;17.71;100.00
18275;BME280;19470;49.322;7.218;2022-10-17T05:31:27;99190.44;;;17.47;100.00
18275;BME280;19470;49.322;7.218;2022-10-17T05:33:54;99194.34;;;17.80;100.00
18275;BME280;19470;49.322;7.218;2022-10-17T05:36:20;99193.88;;;17.57;100.00
18275;BME280;19470;49.322;7.218;2022-10-17T05:38:48;99197.72;;;17.31;100.00
18275;BME280;19470;49.322;7.218;2022-10-17T05:41:14;99193.41;;;17.40;100.00
18275;BME280;19470;49.322;7.218;2022-10-17T05:43:41;99196.38;;;17.33;100.00
18275;BME280;19470;49.322;7.218;2022-10-17T05:46:09;99196.47;;;16.98;100.00
18275;BME280;19470;49.322;7.218;2022-10-17T05:48:36;99200.66;;;17.34;100.00
18275;BME280;19470;49.322;7.218;2022-10-17T05:51:06;99190.28;;;17.07;100.00
18275;BME280;19470;49.322;7.218;2022-10-17T05:53:34;99195.31;;;17.29;100.00
18275;BME280;19470;49.322;7.218;2022-10-17T05:56:03;99196.38;;;17.38;100.00
18275;BME280;19470;49.322;7.218;2022-10-17T05:58:31;99197.41;;;17.48;100.00
18275;BME280;19470;49.322;7.218;2022-10-17T06:00:58;99195.44;;;16.73;100.00
18275;BME280;19470;49.322;7.218;2022-10-17T06:03:26;99197.31;;;16.73;100.00
18275;BME280;19470;49.322;7.218;2022-10-17T06:05:53;99191.88;;;17.19;100.00
18275;BME280;19470;49.322;7.218;2022-10-17T06:08:20;99201.41;;;17.55;100.00
18275;BME280;19470;49.322;7.218;2022-10-17T06:10:47;99198.38;;;17.77;100.00
18275;BME280;19470;49.322;7.218;2022-10-17T06:13:14;99213.22;;;17.39;100.00
18275;BME280;19470;49.322;7.218;2022-10-17T06:15:40;99212.66;;;17.47;100.00
18275;BME280;19470;49.322;7.218;2022-10-17T06:18:07;99217.22;;;17.52;100.00
18275;BME280;19470;49.322;7.218;2022-10-17T06:20:34;99212.16;;;18.05;100.00
18275;BME280;19470;49.322;7.218;2022-10-17T06:23:01;99210.75;;;18.52;100.00
18275;BME280;19470;49.322;7.218;2022-10-17T06:25:29;99212.22;;;18.34;100.00
18275;BME280;19470;49.322;7.218;2022-10-17T06:27:55;99216.75;;;18.38;100.00
18275;BME280;19470;49.322;7.218;2022-10-17T06:30:22;99220.44;;;19.11;100.00
18275;BME280;19470;49.322;7.218;2022-10-17T06:32:48;99221.44;;;18.91;100.00
18275;BME280;19470;49.322;7.218;2022-10-17T06:35:15;99224.84;;;19.02;100.00
18275;BME280;19470;49.322;7.218;2022-10-17T06:37:43;99225.59;;;19.07;100.00
18275;BME280;19470;49.322;7.218;2022-10-17T06:40:10;99239.31;;;17.83;100.00
18275;BME280;19470;49.322;7.218;2022-10-17T06:42:39;99237.28;;;18.93;100.00
18275;BME280;19470;49.322;7.218;2022-10-17T06:45:07;99241.94;;;19.59;100.00
18275;BME280;19470;49.322;7.218;2022-10-17T06:47:34;99250.47;;;19.66;100.00
18275;BME280;19470;49.322;7.218;2022-10-17T06:50:01;99244.16;;;20.37;100.00
18275;BME280;19470;49.322;7.218;2022-10-17T06:52:27;99259.25;;;21.04;100.00
18275;BME280;19470;49.322;7.218;2022-10-17T06:54:55;99266.97;;;21.24;97.53
18275;BME280;19470;49.322;7.218;2022-10-17T06:57:21;99256.63;;;21.45;97.35
18275;BME280;19470;49.322;7.218;2022-10-17T06:59:48;99265.00;;;21.71;96.24
18275;BME280;19470;49.322;7.218;2022-10-17T07:02:14;99268.03;;;21.69;94.43
18275;BME280;19470;49.322;7.218;2022-10-17T07:04:41;99270.38;;;21.99;93.52
18275;BME280;19470;49.322;7.218;2022-10-17T07:07:07;99275.91;;;22.30;91.48
18275;BME280;19470;49.322;7.218;2022-10-17T07:09:34;99272.19;;;22.39;90.95
18275;BME280;19470;49.322;7.218;2022-10-17T07:12:02;99272.53;;;22.60;89.96
18275;BME280;19470;49.322;7.218;2022-10-17T07:14:32;99283.84;;;22.26;91.28
18275;BME280;19470;49.322;7.218;2022-10-17T07:16:58;99280.13;;;22.81;88.59
18275;BME280;19470;49.322;7.218;2022-10-17T07:19:25;99284.97;;;22.70;89.13
18275;BME280;19470;49.322;7.218;2022-10-17T07:21:52;99290.88;;;22.50;89.04
18275;BME280;19470;49.322;7.218;2022-10-17T07:24:18;99291.13;;;22.84;86.78
18275;BME280;19470;49.322;7.218;2022-10-17T07:26:45;99284.44;;;23.35;84.97
18275;BME280;19470;49.322;7.218;2022-10-17T07:29:13;99282.22;;;22.61;88.02
18275;BME280;19470;49.322;7.218;2022-10-17T07:31:39;99286.16;;;23.00;86.25
18275;BME280;19470;49.322;7.218;2022-10-17T07:34:06;99287.09;;;22.95;86.77
18275;BME280;19470;49.322;7.218;2022-10-17T07:36:32;99285.63;;;23.52;84.62
18275;BME280;19470;49.322;7.218;2022-10-17T07:38:59;99297.59;;;22.97;84.70
18275;BME280;19470;49.322;7.218;2022-10-17T07:41:25;99302.91;;;23.73;81.63
18275;BME280;19470;49.322;7.218;2022-10-17T07:43:52;99302.91;;;23.42;82.68
18275;BME280;19470;49.322;7.218;2022-10-17T07:46:19;99316.78;;;23.18;82.81
18275;BME280;19470;49.322;7.218;2022-10-17T07:48:46;99306.00;;;22.95;83.86
18275;BME280;19470;49.322;7.218;2022-10-17T07:51:12;99309.94;;;23.52;81.59
18275;BME280;19470;49.322;7.218;2022-10-17T07:53:39;99310.41;;;23.45;82.22
18275;BME280;19470;49.322;7.218;2022-10-17T07:56:08;99300.94;;;24.22;78.07
18275;BME280;19470;49.322;7.218;2022-10-17T07:58:36;99303.88;;;24.52;77.90
18275;BME280;19470;49.322;7.218;2022-10-17T08:01:04;99312.22;;;23.27;81.10
18275;BME280;19470;49.322;7.218;2022-10-17T08:03:32;99312.19;;;23.89;79.37
18275;BME280;19470;49.322;7.218;2022-10-17T08:05:59;99309.06;;;24.22;77.09
18275;BME280;19470;49.322;7.218;2022-10-17T08:08:26;99304.78;;;24.21;78.06
18275;BME280;19470;49.322;7.218;2022-10-17T08:10:53;99293.22;;;24.38;76.67
18275;BME280;19470;49.322;7.218;2022-10-17T08:13:20;99307.69;;;24.51;75.42
18275;BME280;19470;49.322;7.218;2022-10-17T08:15:47;99313.38;;;25.65;72.45
18275;BME280;19470;49.322;7.218;2022-10-17T08:18:14;99315.16;;;25.14;72.34
18275;BME280;19470;49.322;7.218;2022-10-17T08:20:43;99315.66;;;24.90;74.57
18275;BME280;19470;49.322;7.218;2022-10-17T08:23:09;99322.13;;;25.24;73.03
18275;BME280;19470;49.322;7.218;2022-10-17T08:25:37;99311.31;;;24.98;72.32
18275;BME280;19470;49.322;7.218;2022-10-17T08:28:03;99314.75;;;26.10;69.98
18275;BME280;19470;49.322;7.218;2022-10-17T08:30:30;99324.31;;;25.86;69.27
18275;BME280;19470;49.322;7.218;2022-10-17T08:32:56;99316.47;;;26.44;66.24
18275;BME280;19470;49.322;7.218;2022-10-17T08:35:23;99314.16;;;26.55;66.12
18275;BME280;19470;49.322;7.218;2022-10-17T08:37:51;99305.16;;;27.41;64.10
18275;BME280;19470;49.322;7.218;2022-10-17T08:44:11;99317.88;;;28.35;60.94
18275;BME280;19470;49.322;7.218;2022-10-17T08:46:43;99332.59;;;27.03;63.25
18275;BME280;19470;49.322;7.218;2022-10-17T08:49:16;99320.59;;;27.62;62.70
18275;BME280;19470;49.322;7.218;2022-10-17T08:51:48;99320.81;;;27.57;61.90
18275;BME280;19470;49.322;7.218;2022-10-17T08:54:21;99323.78;;;27.06;63.21
18275;BME280;19470;49.322;7.218;2022-10-17T08:56:52;99324.47;;;28.10;61.34
18275;BME280;19470;49.322;7.218;2022-10-17T08:59:23;99320.38;;;27.55;62.21
18275;BME280;19470;49.322;7.218;2022-10-17T09:01:56;99340.44;;;26.63;65.15
18275;BME280;19470;49.322;7.218;2022-10-17T09:04:45;99327.28;;;27.64;62.40
18275;BME280;19470;49.322;7.218;2022-10-17T09:07:19;99317.97;;;27.08;63.47
18275;BME280;19470;49.322;7.218;2022-10-17T09:09:58;99317.41;;;27.47;63.29
18275;BME280;19470;49.322;7.218;2022-10-17T09:12:35;99321.41;;;28.23;61.25
18275;BME280;19470;49.322;7.218;2022-10-17T09:15:28;99320.00;;;28.42;60.21
18275;BME280;19470;49.322;7.218;2022-10-17T09:17:59;99324.63;;;28.53;60.53
18275;BME280;19470;49.322;7.218;2022-10-17T09:20:30;99318.94;;;29.15;57.70
18275;BME280;19470;49.322;7.218;2022-10-17T09:23:05;99329.53;;;29.32;58.87
18275;BME280;19470;49.322;7.218;2022-10-17T09:25:41;99326.59;;;28.28;60.26
18275;BME280;19470;49.322;7.218;2022-10-17T09:28:13;99324.44;;;29.46;58.42
18275;BME280;19470;49.322;7.218;2022-10-17T09:30:43;99348.47;;;28.57;60.59
18275;BME280;19470;49.322;7.218;2022-10-17T09:33:11;99350.75;;;27.57;62.85
18275;BME280;19470;49.322;7.218;2022-10-17T09:35:38;99356.00;;;27.98;62.14
18275;BME280;19470;49.322;7.218;2022-10-17T09:38:14;99360.53;;;28.43;60.55
18275;BME280;19470;49.322;7.218;2022-10-17T09:40:43;99352.09;;;29.17;58.65
18275;BME280;19470;49.322;7.218;2022-10-17T09:43:12;99363.63;;;28.70;60.20
18275;BME280;19470;49.322;7.218;2022-10-17T09:45:44;99372.78;;;28.25;61.13
18275;BME280;19470;49.322;7.218;2022-10-17T09:48:20;99365.56;;;28.69;59.46
18275;BME280;19470;49.322;7.218;2022-10-17T09:50:49;99366.06;;;29.43;58.74
18275;BME280;19470;49.322;7.218;2022-10-17T09:53:19;99367.97;;;27.61;62.29
18275;BME280;19470;49.322;7.218;2022-10-17T09:55:51;99368.03;;;28.34;61.94
18275;BME280;19470;49.322;7.218;2022-10-17T09:58:20;99369.84;;;28.06;62.16
18275;BME280;19470;49.322;7.218;2022-10-17T10:00:47;99365.47;;;28.66;60.17
18275;BME280;19470;49.322;7.218;2022-10-17T10:03:17;99374.03;;;28.52;61.26
18275;BME280;19470;49.322;7.218;2022-10-17T10:05:58;99386.03;;;26.57;66.74
18275;BME280;19470;49.322;7.218;2022-10-17T10:08:27;99377.34;;;28.86;61.40
18275;BME280;19470;49.322;7.218;2022-10-17T10:10:59;99378.94;;;29.15;60.84
18275;BME280;19470;49.322;7.218;2022-10-17T10:13:28;99382.25;;;29.52;57.79
18275;BME280;19470;49.322;7.218;2022-10-17T10:16:12;99379.81;;;29.63;58.19
18275;BME280;19470;49.322;7.218;2022-10-17T10:18:39;99388.97;;;29.11;59.13
18275;BME280;19470;49.322;7.218;2022-10-17T10:21:09;99380.84;;;28.34;62.19
18275;BME280;19470;49.322;7.218;2022-10-17T10:23:37;99386.09;;;28.79;61.08
18275;BME280;19470;49.322;7.218;2022-10-17T10:26:21;99391.13;;;28.65;61.10
18275;BME280;19470;49.322;7.218;2022-10-17T10:28:54;99395.69;;;29.73;59.58
18275;BME280;19470;49.322;7.218;2022-10-17T10:31:32;99395.28;;;29.43;58.99
18275;BME280;19470;49.322;7.218;2022-10-17T10:34:01;99404.41;;;30.61;54.95
18275;BME280;19470;49.322;7.218;2022-10-17T10:36:43;99399.06;;;29.54;57.84
18275;BME280;19470;49.322;7.218;2022-10-17T10:39:23;99400.97;;;29.82;57.69
18275;BME280;19470;49.322;7.218;2022-10-17T10:41:53;99396.06;;;30.54;56.58
18275;BME280;19470;49.322;7.218;2022-10-17T10:44:22;99402.28;;;28.60;60.80
18275;BME280;19470;49.322;7.218;2022-10-17T10:47:05;99412.16;;;28.27;62.43
18275;BME280;19470;49.322;7.218;2022-10-17T10:49:32;99410.91;;;28.62;61.81
18275;BME280;19470;49.322;7.218;2022-10-17T10:52:00;99410.97;;;29.46;58.74
18275;BME280;19470;49.322;7.218;2022-10-17T10:54:28;99413.91;;;30.32;57.85
18275;BME280;19470;49.322;7.218;2022-10-17T10:57:01;99417.66;;;30.43;56.63
18275;BME280;19470;49.322;7.218;2022-10-17T10:59:32;99410.47;;;30.90;55.54
18275;BME280;19470;49.322;7.218;2022-10-17T11:02:03;99412.16;;;30.24;56.20
18275;BME280;19470;49.322;7.218;2022-10-17T11:04:41;99405.03;;;31.51;54.19
18275;BME280;19470;49.322;7.218;2022-10-17T11:07:12;99412.09;;;31.75;53.96
18275;BME280;19470;49.322;7.218;2022-10-17T11:09:47;99407.03;;;31.97;54.05
18275;BME280;19470;49.322;7.218;2022-10-17T11:12:22;99396.88;;;30.93;55.88
18275;BME280;19470;49.322;7.218;2022-10-17T11:14:53;99395.66;;;33.45;50.01
18275;BME280;19470;49.322;7.218;2022-10-17T11:17:29;99407.19;;;32.34;52.68
18275;BME280;19470;49.322;7.218;2022-10-17T11:20:05;99410.56;;;31.32;54.49
18275;BME280;19470;49.322;7.218;2022-10-17T11:22:36;99415.91;;;31.67;54.66
18275;BME280;19470;49.322;7.218;2022-10-17T11:25:05;99417.56;;;32.21;52.58
18275;BME280;19470;49.322;7.218;2022-10-17T11:27:40;99415.59;;;31.11;54.56
18275;BME280;19470;49.322;7.218;2022-10-17T11:30:11;99415.63;;;31.30;55.88
18275;BME280;19470;49.322;7.218;2022-10-17T11:32:43;99411.47;;;29.08;59.99
18275;BME280;19470;49.322;7.218;2022-10-17T11:35:16;99408.34;;;29.97;58.98
18275;BME280;19470;49.322;7.218;2022-10-17T11:37:48;99416.84;;;30.59;55.63
18275;BME280;19470;49.322;7.218;2022-10-17T11:40:19;99417.47;;;30.87;56.91
18275;BME280;19470;49.322;7.218;2022-10-17T11:42:54;99416.38;;;32.45;53.05
18275;BME280;19470;49.322;7.218;2022-10-17T11:45:24;99409.97;;;33.28;50.34
18275;BME280;19470;49.322;7.218;2022-10-17T11:47:56;99404.88;;;32.10;52.67
18275;BME280;19470;49.322;7.218;2022-10-17T11:50:26;99405.47;;;30.92;54.54
18275;BME280;19470;49.322;7.218;2022-10-17T11:52:55;99400.19;;;32.10;52.63
18275;BME280;19470;49.322;7.218;2022-10-17T11:55:26;99399.31;;;33.19;50.49
18275;BME280;19470;49.322;7.218;2022-10-17T11:58:07;99395.84;;;34.11;48.29
18275;BME280;19470;49.322;7.218;2022-10-17T12:00:49;99392.34;;;33.29;49.97
18275;BME280;19470;49.322;7.218;2022-10-17T12:03:25;99393.75;;;33.49;49.60
18275;BME280;19470;49.322;7.218;2022-10-17T12:05:57;99387.94;;;34.02;48.04
18275;BME280;19470;49.322;7.218;2022-10-17T12:08:30;99394.88;;;33.45;50.31
18275;BME280;19470;49.322;7.218;2022-10-17T12:11:02;99391.84;;;34.67;46.97
18275;BME280;19470;49.322;7.218;2022-10-17T12:13:53;99399.69;;;34.62;47.11
18275;BME280;19470;49.322;7.218;2022-10-17T12:16:36;99400.63;;;33.73;48.21
18275;BME280;19470;49.322;7.218;2022-10-17T12:19:20;99391.03;;;33.16;49.72
18275;BME280;19470;49.322;7.218;2022-10-17T12:22:02;99402.44;;;32.04;51.80
18275;BME280;19470;49.322;7.218;2022-10-17T12:24:36;99396.69;;;33.71;49.82
18275;BME280;19470;49.322;7.218;2022-10-17T12:27:34;99392.53;;;33.91;48.75
18275;BME280;19470;49.322;7.218;2022-10-17T12:30:04;99393.94;;;32.96;50.82
18275;BME280;19470;49.322;7.218;2022-10-17T12:32:32;99396.22;;;33.62;49.82
18275;BME280;19470;49.322;7.218;2022-10-17T12:34:58;99386.16;;;34.31;47.62
18275;BME280;19470;49.322;7.218;2022-10-17T12:40:56;99385.00;;;31.24;54.96
18275;BME280;19470;49.322;7.218;2022-10-17T12:43:56;99378.97;;;32.60;52.53
18275;BME280;19470;49.322;7.218;2022-10-17T12:46:48;99386.81;;;30.97;55.02
18275;BME280;19470;49.322;7.218;2022-10-17T12:52:19;99389.63;;;29.08;62.77
18275;BME280;19470;49.322;7.218;2022-10-17T12:54:49;99393.22;;;28.96;62.65
18275;BME280;19470;49.322;7.218;2022-10-17T12:57:20;99393.13;;;29.80;61.67
18275;BME280;19470;49.322;7.218;2022-10-17T12:59:49;99389.38;;;31.10;57.45
18275;BME280;19470;49.322;7.218;2022-10-17T13:02:19;99395.31;;;31.54;56.44
18275;BME280;19470;49.322;7.218;2022-10-17T13:04:47;99393.25;;;30.70;58.23
18275;BME280;19470;49.322;7.218;2022-10-17T13:07:18;99396.66;;;29.81;60.45
18275;BME280;19470;49.322;7.218;2022-10-17T13:09:46;99388.28;;;29.89;60.74
18275;BME280;19470;49.322;7.218;2022-10-17T13:12:24;99394.22;;;27.90;66.62
18275;BME280;19470;49.322;7.218;2022-10-17T13:14:52;99398.69;;;29.24;64.18
18275;BME280;19470;49.322;7.218;2022-10-17T13:17:24;99397.28;;;29.74;62.17
18275;BME280;19470;49.322;7.218;2022-10-17T13:19:51;99407.81;;;29.16;64.42
18275;BME280;19470;49.322;7.218;2022-10-17T13:22:20;99398.03;;;30.38;60.95
18275;BME280;19470;49.322;7.218;2022-10-17T13:24:47;99395.19;;;30.69;60.04
18275;BME280;19470;49.322;7.218;2022-10-17T13:27:24;99403.78;;;28.97;63.75
18275;BME280;19470;49.322;7.218;2022-10-17T13:29:52;99406.38;;;28.17;66.41
18275;BME280;19470;49.322;7.218;2022-10-17T13:32:22;99400.81;;;29.02;65.60
18275;BME280;19470;49.322;7.218;2022-10-17T13:35:10;99402.03;;;29.33;63.43
18275;BME280;19470;49.322;7.218;2022-10-17T13:37:39;99406.63;;;28.24;67.61